createdAt,value
2023-04-18T00:00:39.935Z,53.72
2023-04-18T00:03:41.968Z,53.86
2023-04-18T00:06:43.967Z,54.20
2023-04-18T00:09:45.838Z,53.86
2023-04-18T00:12:47.844Z,53.74
2023-04-18T00:15:49.649Z,53.90
2023-04-18T00:18:52.735Z,53.85
2023-04-18T00:21:54.547Z,53.94
2023-04-18T00:24:57.596Z,53.80
2023-04-18T00:27:59.435Z,53.66
2023-04-18T00:31:01.276Z,53.46
2023-04-18T00:34:03.139Z,53.29
2023-04-18T00:37:04.947Z,53.46
2023-04-18T00:40:07.357Z,53.27
2023-04-18T00:43:09.214Z,53.68
2023-04-18T00:46:11.241Z,53.37
2023-04-18T00:49:13.120Z,53.53
2023-04-18T00:52:16.491Z,53.68
2023-04-18T00:55:18.870Z,53.98
2023-04-18T00:58:20.831Z,54.19
2023-04-18T01:01:23.460Z,54.55
2023-04-18T01:04:25.457Z,54.53
2023-04-18T01:07:28.203Z,54.66
2023-04-18T01:10:32.098Z,54.87
2023-04-18T01:13:34.022Z,54.88
2023-04-18T01:16:38.962Z,55.41
2023-04-18T01:19:42.531Z,55.13
2023-04-18T01:22:44.651Z,55.00
2023-04-18T01:25:49.336Z,55.23
2023-04-18T01:28:54.067Z,55.16
2023-04-18T01:31:57.333Z,55.26
2023-04-18T01:34:59.500Z,55.52
2023-04-18T01:38:01.978Z,55.59
2023-04-18T01:41:07.441Z,55.63
2023-04-18T01:44:09.264Z,56.10
2023-04-18T01:47:11.041Z,55.58
2023-04-18T01:50:13.013Z,56.09
2023-04-18T01:53:15.327Z,55.98
2023-04-18T01:56:19.201Z,56.47
2023-04-18T01:59:22.467Z,56.80
2023-04-18T02:02:24.736Z,56.65
2023-04-18T02:05:29.771Z,56.54
2023-04-18T02:08:35.562Z,56.54
2023-04-18T02:11:40.712Z,57.02
2023-04-18T02:14:42.571Z,57.23
2023-04-18T02:17:44.921Z,57.48
2023-04-18T02:20:47.433Z,58.27
2023-04-18T02:23:49.426Z,57.79
2023-04-18T02:26:51.210Z,57.50
2023-04-18T02:29:53.808Z,57.00
2023-04-18T02:32:59.008Z,56.93
2023-04-18T02:36:01.875Z,57.03
2023-04-18T02:39:03.855Z,57.36
2023-04-18T02:42:05.747Z,57.45
2023-04-18T02:45:08.950Z,56.28
2023-04-18T02:48:11.038Z,54.54
2023-04-18T02:51:13.104Z,54.43
2023-04-18T02:54:15.188Z,54.81
2023-04-18T02:57:29.640Z,54.81
2023-04-18T03:00:46.333Z,54.55
2023-04-18T03:04:08.023Z,54.78
2023-04-18T03:07:14.152Z,55.22
2023-04-18T03:10:16.770Z,55.73
2023-04-18T03:13:18.721Z,54.91
2023-04-18T03:16:20.983Z,54.65
2023-04-18T03:19:23.807Z,53.76
2023-04-18T03:22:27.702Z,52.35
2023-04-18T03:25:34.422Z,52.18
2023-04-18T03:28:37.112Z,52.20
2023-04-18T03:31:39.567Z,51.61
2023-04-18T03:34:42.840Z,51.08
2023-04-18T03:37:46.484Z,51.30
2023-04-18T03:40:55.365Z,49.81
2023-04-18T03:44:05.110Z,48.88
2023-04-18T03:47:10.377Z,48.51
2023-04-18T03:50:15.891Z,48.82
2023-04-18T03:53:19.762Z,48.10
2023-04-18T03:56:23.396Z,47.20
2023-04-18T03:59:27.675Z,47.39
2023-04-18T04:02:30.575Z,46.63
2023-04-18T04:05:32.954Z,46.25
2023-04-18T04:08:34.809Z,45.47
2023-04-18T04:11:37.560Z,44.90
2023-04-18T04:14:42.091Z,44.75
2023-04-18T04:17:44.810Z,44.38
2023-04-18T04:20:48.090Z,43.95
2023-04-18T04:24:07.039Z,44.08
2023-04-18T04:27:18.850Z,43.78
2023-04-18T04:30:21.595Z,43.35
2023-04-18T04:33:25.660Z,42.60
2023-04-18T04:36:30.165Z,42.69
2023-04-18T04:39:34.063Z,42.40
2023-04-18T04:42:54.197Z,42.44
2023-04-18T04:46:07.798Z,42.35
2023-04-18T04:49:09.673Z,42.39
2023-04-18T04:52:11.698Z,42.77
2023-04-18T04:55:13.556Z,42.73
2023-04-18T04:58:17.444Z,41.95
2023-04-18T05:01:35.600Z,42.15
2023-04-18T05:04:37.559Z,42.18
2023-04-18T05:07:39.844Z,42.01
2023-04-18T05:10:43.145Z,41.77
2023-04-18T05:13:46.241Z,41.63
2023-04-18T05:16:48.400Z,41.82
2023-04-18T05:19:51.084Z,41.20
2023-04-18T05:22:52.909Z,41.52
2023-04-18T05:25:54.700Z,41.81
2023-04-18T05:28:56.489Z,41.59
2023-04-18T05:32:03.683Z,41.47
2023-04-18T05:35:07.094Z,41.28
2023-04-18T05:38:08.862Z,41.38
2023-04-18T05:41:10.643Z,41.09
2023-04-18T05:44:13.470Z,40.86
2023-04-18T05:47:15.634Z,40.76
2023-04-18T05:50:20.158Z,40.62
2023-04-18T05:53:21.990Z,39.78
2023-04-18T05:56:23.873Z,39.35
2023-04-18T05:59:27.001Z,38.77
2023-04-18T06:02:28.872Z,38.90
2023-04-18T06:05:31.344Z,38.67
2023-04-18T06:08:33.321Z,38.54
2023-04-18T06:11:35.815Z,38.36
2023-04-18T06:14:37.555Z,38.55
2023-04-18T06:17:39.697Z,38.52
2023-04-18T06:20:42.205Z,38.20
2023-04-18T06:23:44.024Z,38.21
2023-04-18T06:26:45.821Z,38.19
2023-04-18T06:29:47.680Z,37.77
2023-04-18T06:32:49.640Z,37.71
2023-04-18T06:35:51.741Z,38.29
2023-04-18T06:38:53.572Z,38.52
2023-04-18T06:41:55.534Z,38.55
2023-04-18T06:45:06.700Z,38.14
2023-04-18T06:48:10.788Z,38.39
2023-04-18T06:51:12.854Z,38.20
2023-04-18T06:54:14.798Z,38.37
2023-04-18T06:57:16.738Z,38.22
2023-04-18T07:00:18.769Z,38.07
2023-04-18T07:03:20.768Z,37.92
2023-04-18T07:06:22.717Z,38.17
2023-04-18T07:09:24.603Z,37.76
2023-04-18T07:12:27.235Z,37.53
2023-04-18T07:15:29.059Z,37.34
2023-04-18T07:18:38.066Z,37.69
2023-04-18T07:21:42.658Z,37.60
2023-04-18T07:24:44.515Z,37.44
2023-04-18T07:27:46.471Z,37.88
2023-04-18T07:30:48.403Z,37.75
2023-04-18T07:33:50.312Z,38.12
2023-04-18T07:36:52.115Z,37.96
2023-04-18T07:39:53.911Z,38.45
2023-04-18T07:42:55.818Z,38.25
2023-04-18T07:45:57.710Z,38.42
2023-04-18T07:49:00.131Z,37.58
2023-04-18T07:52:02.172Z,37.09
2023-04-18T07:55:04.222Z,36.64
2023-04-18T07:58:06.004Z,36.62
2023-04-18T08:01:09.009Z,36.26
2023-04-18T08:04:12.235Z,36.06
2023-04-18T08:07:14.051Z,35.55
2023-04-18T08:10:16.083Z,34.75
2023-04-18T08:13:19.201Z,34.33
2023-04-18T08:16:21.277Z,34.46
2023-04-18T08:19:24.347Z,33.92
2023-04-18T08:22:26.106Z,33.76
2023-04-18T08:25:30.019Z,32.57
2023-04-18T08:28:34.778Z,32.28
2023-04-18T08:31:36.698Z,32.30
2023-04-18T08:34:38.527Z,32.07
2023-04-18T08:37:40.445Z,32.08
2023-04-18T08:40:43.516Z,31.77
2023-04-18T08:43:48.714Z,31.35
2023-04-18T08:46:50.884Z,31.47
2023-04-18T08:49:53.770Z,31.90
2023-04-18T08:52:56.282Z,31.54
2023-04-18T08:56:00.330Z,31.42
2023-04-18T08:59:02.835Z,31.35
2023-04-18T09:02:08.828Z,31.26
2023-04-18T09:05:21.749Z,31.26
2023-04-18T09:08:27.370Z,30.57
2023-04-18T09:11:34.607Z,30.01
2023-04-18T09:14:37.417Z,29.81
2023-04-18T09:17:45.617Z,28.83
2023-04-18T09:20:49.862Z,28.19
2023-04-18T09:24:16.231Z,27.97
2023-04-18T09:27:18.883Z,27.41
2023-04-18T09:30:30.873Z,26.95
2023-04-18T09:33:33.070Z,26.49
2023-04-18T09:36:37.371Z,26.37
2023-04-18T09:39:44.110Z,26.25
2023-04-18T09:42:46.794Z,25.94
2023-04-18T09:45:49.111Z,26.01
2023-04-18T09:48:51.054Z,25.35
2023-04-18T09:51:54.722Z,25.30
2023-04-18T09:54:59.941Z,25.41
2023-04-18T09:58:04.226Z,24.98
2023-04-18T10:01:06.405Z,24.70
2023-04-18T10:04:09.757Z,24.56
2023-04-18T10:07:11.687Z,24.84
2023-04-18T10:10:13.986Z,24.94
2023-04-18T10:13:18.853Z,24.86
2023-04-18T10:16:21.154Z,24.53
2023-04-18T10:19:28.290Z,24.32
2023-04-18T10:22:33.521Z,24.03
2023-04-18T10:25:35.306Z,23.25
2023-04-18T10:28:57.291Z,22.75
2023-04-18T10:32:06.875Z,22.43
2023-04-18T10:35:11.673Z,22.17
2023-04-18T10:38:17.400Z,22.07
2023-04-18T10:41:22.063Z,21.93
2023-04-18T10:44:27.121Z,22.51
2023-04-18T10:47:29.122Z,22.09
2023-04-18T10:50:31.188Z,22.17
2023-04-18T10:53:33.176Z,22.03
2023-04-18T10:56:35.229Z,21.32
2023-04-18T10:59:43.625Z,21.17
2023-04-18T11:02:51.586Z,21.04
2023-04-18T11:06:01.714Z,21.56
2023-04-18T11:09:14.084Z,21.76
2023-04-18T11:12:16.373Z,21.25
2023-04-18T11:15:23.595Z,21.60
2023-04-18T11:18:39.066Z,21.94
2023-04-18T11:21:41.089Z,21.82
2023-04-18T11:24:43.146Z,22.30
2023-04-18T11:27:46.675Z,22.68
2023-04-18T11:30:48.715Z,22.19
2023-04-18T11:33:51.810Z,22.39
2023-04-18T11:36:53.625Z,22.46
2023-04-18T11:39:55.915Z,21.65
2023-04-18T11:43:01.813Z,22.36
2023-04-18T11:46:03.675Z,21.96
2023-04-18T11:49:05.624Z,22.72
2023-04-18T11:52:16.501Z,22.74
2023-04-18T11:55:24.725Z,22.63
2023-04-18T11:58:33.896Z,22.66
2023-04-18T12:01:35.770Z,23.09
2023-04-18T12:05:00.253Z,23.80
2023-04-18T12:08:13.321Z,23.14
2023-04-18T12:11:23.328Z,23.61
2023-04-18T12:14:25.648Z,23.87
2023-04-18T12:17:28.752Z,23.99
2023-04-18T12:20:58.631Z,24.29
2023-04-18T12:24:15.411Z,24.83
2023-04-18T12:27:17.337Z,24.99
2023-04-18T12:30:21.493Z,24.65
2023-04-18T12:33:23.638Z,25.07
2023-04-18T12:36:28.479Z,25.32
2023-04-18T12:39:30.274Z,25.32
2023-04-18T12:42:33.658Z,25.41
2023-04-18T12:45:36.106Z,25.47
2023-04-18T12:48:37.842Z,26.06
2023-04-18T12:51:40.669Z,26.32
2023-04-18T12:54:42.461Z,26.64
2023-04-18T12:57:44.680Z,26.72
2023-04-18T13:00:47.573Z,26.80
2023-04-18T13:03:59.926Z,26.81
2023-04-18T13:07:07.423Z,27.16
2023-04-18T13:10:18.709Z,27.18
2023-04-18T13:13:20.531Z,27.27
2023-04-18T13:16:22.696Z,27.37
2023-04-18T13:19:24.676Z,27.41
2023-04-18T13:22:28.614Z,27.59
2023-04-18T13:25:30.612Z,27.45
2023-04-18T13:28:32.694Z,27.71
2023-04-18T13:31:34.408Z,27.67
2023-04-18T13:34:42.794Z,28.15
2023-04-18T13:37:44.602Z,27.98
2023-04-18T13:40:46.451Z,28.05
2023-04-18T13:43:48.247Z,28.29
2023-04-18T13:46:50.025Z,28.04
2023-04-18T13:49:52.049Z,27.89
2023-04-18T13:52:54.785Z,27.98
2023-04-18T13:55:57.006Z,28.25
2023-04-18T13:58:58.861Z,28.15
2023-04-18T14:02:00.961Z,28.17
2023-04-18T14:05:03.033Z,28.22
2023-04-18T14:08:05.419Z,27.40
2023-04-18T14:11:07.372Z,27.01
2023-04-18T14:14:09.287Z,27.00
2023-04-18T14:17:11.399Z,27.14
2023-04-18T14:20:15.635Z,27.36
2023-04-18T14:23:17.584Z,26.97
2023-04-18T14:26:19.992Z,26.67
2023-04-18T14:29:21.719Z,26.63
2023-04-18T14:32:23.694Z,26.48
2023-04-18T14:35:25.515Z,26.48
2023-04-18T14:38:27.377Z,26.36
2023-04-18T14:41:29.360Z,26.76
2023-04-18T14:44:31.486Z,27.18
2023-04-18T14:47:34.740Z,27.07
2023-04-18T14:50:38.562Z,27.24
2023-04-18T14:53:40.274Z,27.43
2023-04-18T14:56:42.086Z,27.11
2023-04-18T14:59:43.859Z,27.27
2023-04-18T15:02:45.880Z,27.56
2023-04-18T15:05:49.166Z,27.81
2023-04-18T15:08:52.697Z,27.96
2023-04-18T15:11:54.577Z,28.20
2023-04-18T15:14:56.381Z,27.99
2023-04-18T15:17:58.164Z,27.84
2023-04-18T15:21:00.245Z,28.44
2023-04-18T15:24:02.058Z,28.73
2023-04-18T15:27:04.027Z,28.48
2023-04-18T15:30:07.895Z,28.59
2023-04-18T15:33:11.173Z,28.98
2023-04-18T15:36:13.018Z,29.21
2023-04-18T15:39:15.142Z,29.10
2023-04-18T15:42:16.944Z,29.62
2023-04-18T15:45:18.964Z,29.78
2023-04-18T15:48:20.842Z,29.62
2023-04-18T15:51:27.535Z,30.03
2023-04-18T15:54:29.305Z,30.26
2023-04-18T15:57:32.109Z,30.71
2023-04-18T16:00:33.929Z,30.60
2023-04-18T16:03:36.251Z,31.04
2023-04-18T16:06:38.184Z,31.02
2023-04-18T16:09:39.925Z,31.16
2023-04-18T16:12:41.840Z,31.43
2023-04-18T16:15:43.693Z,31.13
2023-04-18T16:18:45.780Z,31.65
2023-04-18T16:21:48.954Z,32.05
2023-04-18T16:24:50.898Z,32.24
2023-04-18T16:27:52.813Z,32.10
2023-04-18T16:30:55.758Z,32.08
2023-04-18T16:33:57.810Z,31.98
2023-04-18T16:37:00.165Z,32.06
2023-04-18T16:40:05.173Z,32.08
2023-04-18T16:43:06.949Z,32.22
2023-04-18T16:46:08.762Z,32.34
2023-04-18T16:49:10.642Z,32.27
2023-04-18T16:52:19.666Z,31.94
2023-04-18T16:55:21.605Z,31.92
2023-04-18T16:58:23.783Z,31.84
2023-04-18T17:01:25.690Z,32.13
2023-04-18T17:04:28.789Z,31.99
2023-04-18T17:07:30.901Z,32.24
2023-04-18T17:10:33.003Z,32.32
2023-04-18T17:13:36.035Z,32.21
2023-04-18T17:16:39.567Z,32.11
2023-04-18T17:19:41.608Z,32.28
2023-04-18T17:22:43.830Z,32.48
2023-04-18T17:25:46.269Z,32.53
2023-04-18T17:28:48.022Z,32.77
2023-04-18T17:31:49.887Z,32.73
2023-04-18T17:34:51.759Z,32.88
2023-04-18T17:37:53.521Z,33.18
2023-04-18T17:40:59.931Z,33.32
2023-04-18T17:44:01.706Z,33.19
2023-04-18T17:47:03.602Z,33.24
2023-04-18T17:50:06.925Z,33.34
2023-04-18T17:53:08.652Z,32.51
2023-04-18T17:56:10.451Z,32.46
2023-04-18T17:59:12.470Z,32.32
2023-04-18T18:02:14.717Z,31.99
2023-04-18T18:05:16.754Z,31.71
2023-04-18T18:08:18.573Z,31.87
2023-04-18T18:11:21.458Z,31.71
2023-04-18T18:14:23.406Z,31.78
2023-04-18T18:17:25.172Z,31.72
2023-04-18T18:20:27.564Z,31.85
2023-04-18T18:23:29.432Z,31.99
2023-04-18T18:26:31.211Z,31.58
2023-04-18T18:29:33.109Z,31.45
2023-04-18T18:32:34.890Z,31.25
2023-04-18T18:35:36.748Z,30.86
2023-04-18T18:38:38.464Z,30.59
2023-04-18T18:41:40.516Z,30.78
2023-04-18T18:44:42.247Z,30.87
2023-04-18T18:47:44.020Z,30.82
2023-04-18T18:50:45.725Z,30.78
2023-04-18T18:53:47.456Z,31.00
2023-04-18T18:56:49.166Z,30.81
2023-04-18T18:59:50.900Z,31.01
2023-04-18T19:02:52.982Z,30.69
2023-04-18T19:05:58.832Z,30.92
2023-04-18T19:09:00.797Z,31.20
2023-04-18T19:12:06.215Z,31.18
2023-04-18T19:15:08.863Z,31.34
2023-04-18T19:18:10.960Z,31.77
2023-04-18T19:21:15.967Z,31.55
2023-04-18T19:24:18.079Z,31.79
2023-04-18T19:27:19.810Z,31.96
2023-04-18T19:30:21.698Z,31.92
2023-04-18T19:33:24.590Z,31.90
2023-04-18T19:36:26.760Z,31.81
2023-04-18T19:39:28.811Z,32.15
2023-04-18T19:42:30.914Z,32.31
2023-04-18T19:45:32.790Z,32.17
2023-04-18T19:48:37.668Z,32.23
2023-04-18T19:51:40.857Z,32.36
2023-04-18T19:54:42.601Z,32.38
2023-04-18T19:57:44.375Z,32.53
2023-04-18T20:00:46.383Z,32.66
2023-04-18T20:03:48.342Z,32.81
2023-04-18T20:06:50.357Z,32.94
2023-04-18T20:09:52.700Z,32.89
2023-04-18T20:12:54.462Z,33.17
2023-04-18T20:15:56.288Z,33.08
2023-04-18T20:18:58.097Z,32.94
2023-04-18T20:22:01.345Z,33.19
2023-04-18T20:25:05.069Z,33.27
2023-04-18T20:28:07.000Z,33.54
2023-04-18T20:31:08.810Z,33.33
2023-04-18T20:34:10.627Z,33.36
2023-04-18T20:37:16.114Z,33.48
2023-04-18T20:40:18.866Z,33.33
2023-04-18T20:43:20.931Z,33.15
2023-04-18T20:46:22.669Z,33.23
2023-04-18T20:49:24.462Z,33.34
2023-04-18T20:52:26.241Z,33.26
2023-04-18T20:55:28.003Z,33.43
2023-04-18T20:58:30.099Z,33.48
2023-04-18T21:01:31.902Z,33.79
2023-04-18T21:04:33.945Z,33.48
2023-04-18T21:07:36.306Z,33.85
2023-04-18T21:10:38.300Z,33.95
2023-04-18T21:13:40.091Z,33.80
2023-04-18T21:16:42.014Z,34.06
2023-04-18T21:19:47.441Z,34.02
2023-04-18T21:22:49.199Z,34.15
2023-04-18T21:25:50.914Z,34.69
2023-04-18T21:29:04.905Z,35.05
2023-04-18T21:32:06.657Z,34.84
2023-04-18T21:35:08.805Z,35.21
2023-04-18T21:38:10.712Z,35.68
2023-04-18T21:41:16.996Z,36.05
2023-04-18T21:44:18.946Z,35.69
2023-04-18T21:47:20.855Z,35.87
2023-04-18T21:50:22.779Z,36.30
2023-04-18T21:53:24.647Z,36.74
2023-04-18T21:56:26.844Z,36.75
2023-04-18T21:59:28.960Z,37.32
2023-04-18T22:02:30.870Z,37.64
2023-04-18T22:05:33.487Z,37.98
2023-04-18T22:08:35.429Z,38.66
2023-04-18T22:11:37.325Z,38.93
2023-04-18T22:14:40.421Z,39.07
2023-04-18T22:17:42.479Z,39.21
2023-04-18T22:20:45.309Z,39.29
2023-04-18T22:23:47.252Z,39.24
2023-04-18T22:26:49.040Z,39.98
2023-04-18T22:29:51.104Z,40.31
2023-04-18T22:32:52.898Z,41.19
2023-04-18T22:35:55.668Z,41.92
2023-04-18T22:38:57.646Z,41.19
2023-04-18T22:41:59.383Z,40.92
2023-04-18T22:45:01.504Z,41.18
2023-04-18T22:48:03.626Z,41.32
2023-04-18T22:51:06.230Z,41.33
2023-04-18T22:54:07.905Z,41.43
2023-04-18T22:57:09.685Z,42.16
2023-04-18T23:00:12.470Z,42.22
2023-04-18T23:03:14.602Z,42.22
2023-04-18T23:06:16.519Z,42.00
2023-04-18T23:09:19.725Z,42.57
2023-04-18T23:12:22.067Z,43.02
2023-04-18T23:15:24.202Z,43.12
2023-04-18T23:18:29.983Z,43.42
2023-04-18T23:21:32.237Z,43.32
2023-04-18T23:24:34.097Z,43.29
2023-04-18T23:27:36.056Z,43.61
2023-04-18T23:30:37.920Z,44.34
2023-04-18T23:33:39.676Z,44.38
2023-04-18T23:36:42.437Z,44.42
2023-04-18T23:39:44.306Z,44.07
2023-04-18T23:42:47.182Z,43.37
2023-04-18T23:45:48.967Z,43.21
2023-04-18T23:48:51.028Z,43.60
2023-04-18T23:51:52.777Z,43.76
2023-04-18T23:54:54.729Z,43.63
2023-04-18T23:57:56.476Z,42.93
